Time;durP1;ratioP1;P1;durP2;ratioP2;P2;SDS_P1;SDS_P2;PMS_P1;PMS_P2;Temp;Humidity;BMP_temperature;BMP_pressure;BME280_temperature;BME280_humidity;BME280_pressure;Samples;Min_cycle;Max_cycle;Signal;HPM_P1;HPM_P2
2023/05/03 00:00:44;;;;;;;11.93;6.15;;;10.80;99.90;;;;;;2091378;28;20027;-73
2023/05/03 00:01:44;;;;;;;11.48;7.18;;;10.70;99.90;;;;;;2086368;28;20033;-73
2023/05/03 00:02:45;;;;;;;14.00;7.80;;;10.70;99.90;;;;;;2089439;28;20465;-73
2023/05/03 00:03:47;;;;;;;14.38;7.40;;;10.80;99.90;;;;;;2088295;28;20037;-72
2023/05/03 00:04:52;;;;;;;13.27;6.70;;;10.70;99.90;;;;;;2088894;28;20033;-72
2023/05/03 00:05:53;;;;;;;10.32;6.75;;;10.70;99.90;;;;;;2088219;28;20511;-72
2023/05/03 00:06:54;;;;;;;10.48;6.63;;;10.70;99.90;;;;;;2087842;28;20028;-72
2023/05/03 00:07:55;;;;;;;10.85;7.05;;;10.70;99.90;;;;;;2088661;28;20055;-72
2023/05/03 00:08:56;;;;;;;12.20;7.38;;;10.70;99.90;;;;;;2078122;28;20024;-72
2023/05/03 00:09:57;;;;;;;13.38;7.50;;;10.70;99.90;;;;;;2086792;28;20082;-72
2023/05/03 00:11:00;;;;;;;11.40;7.40;;;10.70;99.90;;;;;;2086675;28;20205;-73
2023/05/03 00:12:01;;;;;;;9.60;6.72;;;10.70;99.90;;;;;;2091501;28;20343;-72
2023/05/03 00:13:02;;;;;;;8.18;6.88;;;10.70;99.90;;;;;;2086790;28;20036;-72
2023/05/03 00:14:02;;;;;;;13.25;8.43;;;10.70;99.90;;;;;;2093469;28;20037;-73
2023/05/03 00:15:03;;;;;;;14.52;8.35;;;10.70;99.90;;;;;;2084013;28;20033;-73
2023/05/03 00:16:04;;;;;;;13.85;8.10;;;10.70;99.90;;;;;;2087437;28;20633;-73
2023/05/03 00:17:05;;;;;;;12.13;8.05;;;10.70;99.90;;;;;;2087240;28;20103;-72
2023/05/03 00:18:05;;;;;;;15.35;7.90;;;10.70;99.90;;;;;;2089223;28;20033;-72
2023/05/03 00:19:06;;;;;;;12.20;7.82;;;10.60;99.90;;;;;;2086915;28;20024;-73
2023/05/03 00:20:07;;;;;;;10.02;7.57;;;10.60;99.90;;;;;;2087093;28;20021;-73
2023/05/03 00:21:07;;;;;;;15.27;8.13;;;10.60;99.90;;;;;;2091469;28;20056;-73
2023/05/03 00:22:08;;;;;;;12.35;8.27;;;10.60;99.90;;;;;;2085313;28;20484;-72
2023/05/03 00:23:09;;;;;;;12.80;8.23;;;10.60;99.90;;;;;;2088831;28;20094;-72
2023/05/03 00:24:10;;;;;;;16.60;8.88;;;10.60;99.90;;;;;;2087189;28;20052;-73
2023/05/03 00:25:10;;;;;;;13.05;8.38;;;10.50;99.90;;;;;;2089209;28;20033;-73
2023/05/03 00:26:11;;;;;;;10.45;8.02;;;10.50;99.90;;;;;;2091097;28;20043;-74
2023/05/03 00:27:12;;;;;;;15.15;8.85;;;10.50;99.90;;;;;;2089547;28;20032;-73
2023/05/03 00:28:13;;;;;;;13.20;8.80;;;10.50;99.90;;;;;;2103840;28;20136;-73
2023/05/03 00:29:14;;;;;;;16.20;8.98;;;10.50;99.90;;;;;;2105185;28;20106;-73
2023/05/03 00:30:17;;;;;;;14.63;8.30;;;10.40;99.90;;;;;;2086496;28;20612;-72
2023/05/03 00:31:18;;;;;;;16.02;8.57;;;10.40;99.90;;;;;;2086589;28;20033;-73
2023/05/03 00:32:21;;;;;;;13.25;8.57;;;10.40;99.90;;;;;;2091229;28;20558;-73
2023/05/03 00:33:21;;;;;;;15.50;8.50;;;10.40;99.90;;;;;;2086855;28;20021;-73
2023/05/03 00:34:22;;;;;;;13.82;8.50;;;10.40;99.90;;;;;;2086738;28;20025;-72
2023/05/03 00:35:23;;;;;;;12.75;8.07;;;10.40;99.90;;;;;;2088611;28;20035;-73
2023/05/03 00:36:23;;;;;;;12.25;9.07;;;10.40;99.90;;;;;;2085501;28;20484;-72
2023/05/03 00:37:25;;;;;;;17.75;8.70;;;10.40;99.90;;;;;;2085414;28;20407;-72
2023/05/03 00:38:25;;;;;;;16.98;9.10;;;10.40;99.90;;;;;;2087989;28;20021;-72
2023/05/03 00:39:30;;;;;;;13.10;8.40;;;10.30;99.90;;;;;;2088601;28;20025;-72
2023/05/03 00:40:30;;;;;;;13.07;8.40;;;10.30;99.90;;;;;;2091258;28;20109;-72
2023/05/03 00:41:31;;;;;;;13.75;8.32;;;10.30;99.90;;;;;;2090613;28;20537;-72
2023/05/03 00:42:35;;;;;;;11.02;8.18;;;10.30;99.90;;;;;;2090506;28;20032;-72
2023/05/03 00:43:36;;;;;;;12.80;8.00;;;10.30;99.90;;;;;;2084404;28;20025;-73
2023/05/03 00:44:37;;;;;;;10.30;7.55;;;10.30;99.90;;;;;;2086827;28;20024;-72
2023/05/03 00:45:37;;;;;;;13.68;8.20;;;10.30;99.90;;;;;;2087865;28;20520;-72
2023/05/03 00:46:38;;;;;;;15.65;8.68;;;10.30;99.90;;;;;;2082136;28;20187;-72
2023/05/03 00:47:39;;;;;;;12.80;8.55;;;10.30;99.90;;;;;;2090450;28;20028;-72
2023/05/03 00:48:40;;;;;;;13.02;8.63;;;10.30;99.90;;;;;;2089755;28;20123;-72
2023/05/03 00:49:41;;;;;;;14.88;8.70;;;10.30;99.90;;;;;;2088315;28;20032;-72
2023/05/03 00:50:42;;;;;;;12.55;8.75;;;10.30;99.90;;;;;;2086406;28;20040;-72
2023/05/03 00:51:43;;;;;;;15.07;8.60;;;10.30;99.90;;;;;;2086370;28;20021;-73
2023/05/03 00:52:44;;;;;;;13.88;8.70;;;10.30;99.90;;;;;;2086261;28;20060;-73
2023/05/03 00:53:45;;;;;;;13.00;8.40;;;10.30;99.90;;;;;;2102258;28;20503;-72
2023/05/03 00:54:46;;;;;;;14.15;8.93;;;10.30;99.90;;;;;;2102294;28;20024;-70
2023/05/03 00:55:50;;;;;;;15.27;8.55;;;10.20;99.90;;;;;;2088924;28;20033;-73
2023/05/03 00:56:51;;;;;;;11.95;8.15;;;10.20;99.90;;;;;;2082582;28;20075;-72
2023/05/03 00:57:51;;;;;;;13.93;8.70;;;10.20;99.90;;;;;;2082988;28;20499;-72
2023/05/03 00:58:52;;;;;;;14.45;8.85;;;10.20;99.90;;;;;;2095231;28;20069;-71
2023/05/03 00:59:53;;;;;;;11.38;8.15;;;10.20;99.90;;;;;;2104580;28;20020;-72
2023/05/03 01:00:54;;;;;;;13.07;8.88;;;10.20;99.90;;;;;;2086336;28;20017;-72
2023/05/03 01:01:55;;;;;;;13.60;8.80;;;10.20;99.90;;;;;;2085767;28;20029;-71
2023/05/03 01:02:56;;;;;;;16.30;9.13;;;10.20;99.90;;;;;;2077792;28;20732;-71
2023/05/03 01:04:00;;;;;;;14.85;8.55;;;10.20;99.90;;;;;;2086348;28;20055;-71
2023/05/03 01:05:02;;;;;;;14.63;9.32;;;10.20;99.90;;;;;;2090519;28;20039;-71
2023/05/03 01:06:19;;;;;;;12.57;8.30;;;10.20;99.90;;;;;;2088084;28;20504;-72
2023/05/03 01:07:37;;;;;;;15.70;8.63;;;10.20;99.90;;;;;;2085418;28;20488;-72
2023/05/03 01:08:44;;;;;;;12.35;8.35;;;10.20;99.90;;;;;;2086213;28;20028;-72
2023/05/03 01:10:13;;;;;;;15.02;8.07;;;10.20;99.90;;;;;;2086311;28;20550;-73
2023/05/03 01:11:32;;;;;;;14.43;8.77;;;10.20;99.90;;;;;;2099945;28;20027;-72
2023/05/03 01:12:45;;;;;;;15.10;8.68;;;10.20;99.90;;;;;;2095119;28;20482;-72
2023/05/03 01:14:15;;;;;;;13.63;8.75;;;10.20;99.90;;;;;;2088378;28;20056;-72
2023/05/03 01:15:58;;;;;;;14.15;8.57;;;10.20;99.90;;;;;;2081710;28;20131;-71
2023/05/03 01:17:10;;;;;;;14.82;7.97;;;10.10;99.90;;;;;;2080769;28;20033;-71
2023/05/03 01:18:15;;;;;;;12.93;8.07;;;10.10;99.90;;;;;;2104157;28;20036;-72
2023/05/03 01:19:29;;;;;;;10.32;7.80;;;10.00;99.90;;;;;;2094737;28;20044;-73
2023/05/03 01:20:33;;;;;;;12.18;8.32;;;10.00;99.90;;;;;;2086833;28;20115;-70
2023/05/03 01:21:36;;;;;;;10.70;7.85;;;10.00;99.90;;;;;;2083235;28;20025;-71
2023/05/03 01:22:40;;;;;;;13.38;8.13;;;10.00;99.90;;;;;;2091083;28;20028;-70
2023/05/03 01:24:06;;;;;;;13.80;8.52;;;10.00;99.90;;;;;;2104756;28;20522;-71
2023/05/03 01:25:09;;;;;;;13.90;7.78;;;10.00;99.90;;;;;;2094241;28;20025;-72
2023/05/03 01:26:21;;;;;;;12.57;7.63;;;10.00;99.90;;;;;;2089156;28;20040;-72
2023/05/03 01:27:21;;;;;;;10.73;7.38;;;10.00;99.90;;;;;;2096445;28;20525;-72
2023/05/03 01:28:22;;;;;;;13.45;7.63;;;9.90;99.90;;;;;;2094930;28;20525;-72
2023/05/03 01:29:22;;;;;;;10.20;6.97;;;9.90;99.90;;;;;;2079085;28;20115;-72
2023/05/03 01:30:27;;;;;;;12.40;7.32;;;9.80;99.90;;;;;;2085435;28;20029;-72
2023/05/03 01:31:39;;;;;;;10.60;6.70;;;9.80;99.90;;;;;;2085335;28;20109;-72
2023/05/03 01:32:51;;;;;;;11.38;7.35;;;9.90;99.90;;;;;;2079143;28;20103;-72
2023/05/03 01:34:27;;;;;;;9.90;6.72;;;9.80;99.90;;;;;;2091298;28;20518;-72
2023/05/03 01:35:43;;;;;;;10.32;7.00;;;9.80;99.90;;;;;;2099773;28;20528;-72
2023/05/03 01:36:44;;;;;;;9.82;6.78;;;9.80;99.90;;;;;;2094790;28;20024;-71
2023/05/03 01:37:46;;;;;;;11.30;7.13;;;9.80;99.90;;;;;;2088375;28;20018;-72
2023/05/03 01:38:48;;;;;;;11.60;7.15;;;9.80;99.90;;;;;;2088579;28;20035;-72
2023/05/03 01:40:00;;;;;;;13.57;7.28;;;9.80;99.90;;;;;;2080186;28;20029;-71
2023/05/03 01:41:05;;;;;;;11.20;6.30;;;9.80;99.90;;;;;;2090209;28;20082;-72
2023/05/03 01:42:07;;;;;;;9.48;6.00;;;9.80;99.90;;;;;;2087447;28;20526;-72
2023/05/03 01:43:10;;;;;;;9.57;5.82;;;9.90;99.90;;;;;;2088212;28;20097;-72
2023/05/03 01:44:12;;;;;;;10.32;6.03;;;9.90;99.90;;;;;;2089640;28;20059;-72
2023/05/03 01:45:14;;;;;;;11.88;6.07;;;9.90;99.90;;;;;;2088117;28;20028;-72
2023/05/03 01:46:15;;;;;;;9.38;5.78;;;9.90;99.90;;;;;;2085116;28;20067;-71
2023/05/03 01:47:18;;;;;;;8.65;5.78;;;9.90;99.90;;;;;;2090469;28;20055;-72
2023/05/03 01:48:19;;;;;;;8.38;5.30;;;9.80;99.90;;;;;;2085096;28;20063;-72
2023/05/03 01:49:19;;;;;;;8.05;5.38;;;9.80;99.90;;;;;;2087714;28;20043;-71
2023/05/03 01:50:20;;;;;;;9.13;5.15;;;9.80;99.90;;;;;;2082478;28;20067;-72
2023/05/03 01:51:22;;;;;;;8.73;5.32;;;9.80;99.90;;;;;;2089270;28;20028;-73
2023/05/03 01:52:23;;;;;;;9.88;5.30;;;9.70;99.90;;;;;;2090065;28;20028;-84
2023/05/03 01:53:24;;;;;;;11.52;5.60;;;9.70;99.90;;;;;;2089862;28;20162;-86
2023/05/03 01:54:25;;;;;;;8.43;4.97;;;9.70;99.90;;;;;;2098809;28;20015;-67
2023/05/03 01:55:25;;;;;;;10.45;4.82;;;9.70;99.90;;;;;;2095658;28;20495;-67
2023/05/03 01:56:26;;;;;;;8.00;5.05;;;9.60;99.90;;;;;;2093359;28;20086;-71
2023/05/03 01:57:27;;;;;;;7.82;4.50;;;9.60;99.90;;;;;;2092967;28;20395;-71
2023/05/03 01:58:28;;;;;;;6.85;4.43;;;9.60;99.90;;;;;;2093384;28;20024;-72
2023/05/03 01:59:28;;;;;;;6.47;4.60;;;9.70;99.90;;;;;;2087877;28;20113;-72
2023/05/03 02:00:29;;;;;;;10.10;4.90;;;9.70;99.90;;;;;;2086333;28;20033;-72
2023/05/03 02:01:29;;;;;;;7.10;4.60;;;9.70;99.90;;;;;;2103049;28;20054;-72
2023/05/03 02:02:30;;;;;;;7.40;4.70;;;9.70;99.90;;;;;;2087198;28;20405;-72
2023/05/03 02:03:31;;;;;;;6.82;4.85;;;9.70;99.90;;;;;;2096620;28;20032;-72
2023/05/03 02:04:31;;;;;;;7.88;5.10;;;9.70;99.90;;;;;;2085705;28;20306;-72
2023/05/03 02:05:32;;;;;;;9.90;4.97;;;9.70;99.90;;;;;;2093871;28;20020;-72
2023/05/03 02:06:34;;;;;;;9.32;5.07;;;9.70;99.90;;;;;;2093115;28;20017;-71
2023/05/03 02:07:35;;;;;;;7.60;5.13;;;9.70;99.90;;;;;;2092577;28;20104;-72
2023/05/03 02:08:35;;;;;;;9.10;4.85;;;9.70;99.90;;;;;;2095458;28;20534;-71
2023/05/03 02:09:36;;;;;;;9.90;5.10;;;9.70;99.90;;;;;;2085136;28;20578;-72
2023/05/03 02:10:36;;;;;;;9.23;5.25;;;9.70;99.90;;;;;;2079488;28;20048;-73
2023/05/03 02:11:37;;;;;;;6.70;4.70;;;9.70;99.90;;;;;;2078254;28;20021;-72
2023/05/03 02:12:38;;;;;;;8.60;4.80;;;9.70;99.90;;;;;;2091585;28;20036;-72
2023/05/03 02:13:39;;;;;;;9.45;5.28;;;9.70;99.90;;;;;;2077058;28;20495;-72
2023/05/03 02:14:40;;;;;;;7.97;5.13;;;9.60;99.90;;;;;;2089929;28;20028;-71
2023/05/03 02:15:41;;;;;;;9.35;5.10;;;9.60;99.90;;;;;;2084951;28;20032;-72
2023/05/03 02:16:42;;;;;;;7.30;5.00;;;9.50;99.90;;;;;;2084781;28;20075;-72
2023/05/03 02:17:44;;;;;;;6.93;4.60;;;9.50;99.90;;;;;;2076726;28;20057;-72
2023/05/03 02:18:45;;;;;;;7.00;4.78;;;9.50;99.90;;;;;;2087767;28;20036;-72
2023/05/03 02:19:45;;;;;;;8.55;4.68;;;9.50;99.90;;;;;;2081316;28;20112;-72
2023/05/03 02:20:46;;;;;;;10.75;5.50;;;9.50;99.90;;;;;;2077013;28;20120;-72
2023/05/03 02:21:47;;;;;;;9.90;4.95;;;9.40;99.90;;;;;;2089815;28;20506;-71
2023/05/03 02:22:47;;;;;;;8.15;5.18;;;9.40;99.90;;;;;;2091743;28;20031;-71
2023/05/03 02:23:48;;;;;;;7.82;5.25;;;9.40;99.90;;;;;;2085588;28;20306;-72
2023/05/03 02:24:48;;;;;;;8.52;5.20;;;9.40;99.90;;;;;;2085623;28;20021;-72
2023/05/03 02:25:50;;;;;;;9.68;5.07;;;9.40;99.90;;;;;;2085735;28;20487;-71
2023/05/03 02:26:50;;;;;;;9.43;5.28;;;9.40;99.90;;;;;;2091962;28;20028;-72
2023/05/03 02:27:51;;;;;;;11.10;6.00;;;9.40;99.90;;;;;;2086653;28;20121;-71
2023/05/03 02:28:51;;;;;;;6.65;4.95;;;9.40;99.90;;;;;;2099070;28;20143;-71
2023/05/03 02:29:52;;;;;;;8.88;5.25;;;9.30;99.90;;;;;;2094716;28;20039;-71
2023/05/03 02:30:53;;;;;;;6.50;5.15;;;9.30;99.90;;;;;;2087011;28;20472;-73
2023/05/03 02:31:53;;;;;;;8.38;5.28;;;9.30;99.90;;;;;;2085231;28;20173;-71
2023/05/03 02:32:54;;;;;;;10.55;5.40;;;9.40;99.90;;;;;;2085039;28;20348;-71
2023/05/03 02:33:55;;;;;;;8.65;5.38;;;9.40;99.90;;;;;;2089496;28;20028;-72
2023/05/03 02:34:56;;;;;;;9.48;5.55;;;9.40;99.90;;;;;;2081561;28;20029;-72
2023/05/03 02:35:58;;;;;;;9.52;5.30;;;9.40;99.90;;;;;;2084338;28;20104;-71
2023/05/03 02:36:59;;;;;;;9.75;5.60;;;9.30;99.90;;;;;;2093268;28;20114;-71
2023/05/03 02:38:00;;;;;;;10.40;5.57;;;9.30;99.90;;;;;;2101915;28;20032;-71
2023/05/03 02:39:00;;;;;;;8.07;5.30;;;9.30;99.90;;;;;;2088580;28;20415;-71
2023/05/03 02:40:01;;;;;;;9.30;5.35;;;9.20;99.90;;;;;;2098606;28;20093;-71
2023/05/03 02:41:01;;;;;;;9.60;5.30;;;9.20;99.90;;;;;;2094578;28;20163;-71
2023/05/03 02:42:04;;;;;;;9.57;5.50;;;9.20;99.90;;;;;;2087890;28;20132;-72
2023/05/03 02:43:04;;;;;;;9.60;5.47;;;9.20;99.90;;;;;;2081945;28;20187;-71
2023/05/03 02:44:05;;;;;;;8.40;5.63;;;9.20;99.90;;;;;;2081353;28;20029;-71
2023/05/03 02:45:06;;;;;;;7.95;5.15;;;9.10;99.90;;;;;;2084749;28;20020;-72
2023/05/03 02:46:07;;;;;;;8.10;5.50;;;9.10;99.90;;;;;;2084734;28;20017;-72
2023/05/03 02:47:09;;;;;;;7.25;5.53;;;9.10;99.90;;;;;;2088786;28;20666;-72
2023/05/03 02:48:15;;;;;;;9.68;5.85;;;9.20;99.90;;;;;;2090033;28;20029;-72
2023/05/03 02:49:15;;;;;;;10.02;6.30;;;9.20;99.90;;;;;;2087373;28;20127;-72
2023/05/03 02:50:18;;;;;;;12.45;6.10;;;9.20;99.90;;;;;;2076727;28;20021;-72
2023/05/03 02:51:19;;;;;;;10.93;6.78;;;9.30;99.90;;;;;;2079610;28;20172;-72
2023/05/03 02:52:20;;;;;;;9.80;5.90;;;9.30;99.90;;;;;;2081980;28;20028;-72
2023/05/03 02:53:21;;;;;;;10.13;6.07;;;9.30;99.90;;;;;;2090510;28;20780;-73
2023/05/03 02:54:22;;;;;;;9.40;6.45;;;9.30;99.90;;;;;;2085882;28;20598;-73
2023/05/03 02:55:22;;;;;;;10.60;6.32;;;9.30;99.90;;;;;;2084976;28;20025;-73
2023/05/03 02:56:25;;;;;;;9.85;5.85;;;9.20;99.90;;;;;;2085023;28;20028;-73
2023/05/03 02:57:26;;;;;;;11.45;6.47;;;9.20;99.90;;;;;;2090059;28;20264;-73
2023/05/03 02:58:27;;;;;;;12.05;6.85;;;9.20;99.90;;;;;;2087992;28;20530;-72
2023/05/03 02:59:29;;;;;;;9.50;6.35;;;9.20;99.90;;;;;;2086332;28;20197;-72
2023/05/03 03:00:30;;;;;;;11.35;7.00;;;9.30;99.90;;;;;;2079493;28;20053;-72
2023/05/03 03:01:32;;;;;;;9.38;6.60;;;9.20;99.90;;;;;;2081198;28;20025;-72
2023/05/03 03:02:34;;;;;;;10.82;6.57;;;9.20;99.90;;;;;;2075576;28;20022;-72
2023/05/03 03:03:34;;;;;;;10.70;6.65;;;9.20;99.90;;;;;;2085346;28;20572;-72
2023/05/03 03:04:35;;;;;;;15.02;7.82;;;9.20;99.90;;;;;;2089178;28;20060;-72
2023/05/03 03:05:35;;;;;;;14.13;8.05;;;9.20;99.90;;;;;;2085334;28;20031;-71
2023/05/03 03:06:36;;;;;;;12.70;7.60;;;9.20;99.90;;;;;;2089456;28;20012;-74
2023/05/03 03:07:38;;;;;;;14.05;7.45;;;9.20;99.90;;;;;;2085735;28;20117;-73
2023/05/03 03:08:39;;;;;;;12.52;7.55;;;9.20;99.90;;;;;;2083519;28;20411;-73
2023/05/03 03:09:41;;;;;;;12.63;7.35;;;9.10;99.90;;;;;;2070863;28;20124;-74
2023/05/03 03:10:41;;;;;;;12.32;7.90;;;9.20;99.90;;;;;;2092347;28;20036;-73
2023/05/03 03:11:45;;;;;;;13.48;7.50;;;9.20;99.90;;;;;;2094386;28;20127;-72
2023/05/03 03:12:46;;;;;;;12.55;7.70;;;9.20;99.90;;;;;;2095803;28;20278;-71
2023/05/03 03:13:56;;;;;;;10.93;7.15;;;9.20;99.90;;;;;;2083178;28;20029;-72
2023/05/03 03:14:59;;;;;;;11.40;8.27;;;9.20;99.90;;;;;;2084347;28;20378;-73
2023/05/03 03:16:01;;;;;;;13.70;7.97;;;9.20;99.90;;;;;;2076448;28;20029;-73
2023/05/03 03:17:06;;;;;;;13.23;8.00;;;9.20;99.90;;;;;;2089088;28;20075;-71
2023/05/03 03:18:06;;;;;;;13.20;7.95;;;9.20;99.90;;;;;;2089932;28;20400;-71
2023/05/03 03:19:07;;;;;;;11.48;7.45;;;9.20;99.90;;;;;;2088641;28;20025;-71
2023/05/03 03:20:10;;;;;;;13.73;7.57;;;9.20;99.90;;;;;;2084155;28;20691;-74
2023/05/03 03:21:10;;;;;;;14.45;7.93;;;9.20;99.90;;;;;;2079729;28;20103;-73
2023/05/03 03:22:11;;;;;;;12.85;7.80;;;9.20;99.90;;;;;;2092762;28;20027;-72
2023/05/03 03:23:13;;;;;;;13.20;7.90;;;9.20;99.90;;;;;;2099798;28;20484;-72
2023/05/03 03:24:14;;;;;;;13.82;7.95;;;9.20;99.90;;;;;;2085787;28;20054;-72
2023/05/03 03:25:15;;;;;;;12.43;8.10;;;9.20;99.90;;;;;;2086598;28;20028;-72
2023/05/03 03:26:15;;;;;;;11.88;7.78;;;9.20;99.90;;;;;;2076396;28;20626;-72
2023/05/03 03:27:16;;;;;;;13.77;8.20;;;9.10;99.90;;;;;;2084373;28;20049;-72
2023/05/03 03:28:17;;;;;;;12.32;7.72;;;9.10;99.90;;;;;;2085489;28;20025;-72
2023/05/03 03:29:19;;;;;;;13.30;7.35;;;9.20;99.90;;;;;;2087311;28;20526;-70
2023/05/03 03:30:19;;;;;;;17.00;9.60;;;9.20;99.90;;;;;;2086152;28;20033;-72
2023/05/03 03:31:32;;;;;;;12.07;8.50;;;9.20;99.90;;;;;;2087948;28;20060;-72
2023/05/03 03:32:33;;;;;;;14.45;8.18;;;9.10;99.90;;;;;;2075850;28;20033;-73
2023/05/03 03:33:35;;;;;;;13.90;8.07;;;9.20;99.90;;;;;;2067208;28;20029;-72
2023/05/03 03:34:42;;;;;;;14.85;7.53;;;9.10;99.90;;;;;;2068921;28;20294;-74
2023/05/03 03:35:43;;;;;;;12.25;7.63;;;9.10;99.90;;;;;;2088806;28;20021;-71
2023/05/03 03:36:45;;;;;;;11.50;7.47;;;9.10;99.90;;;;;;2086252;28;20110;-71
2023/05/03 03:37:46;;;;;;;11.65;8.00;;;9.10;99.90;;;;;;2094450;28;20106;-72
2023/05/03 03:38:47;;;;;;;10.98;7.70;;;9.10;99.90;;;;;;2103301;28;20036;-72
2023/05/03 03:39:47;;;;;;;10.35;7.57;;;9.10;99.90;;;;;;2086677;28;20214;-71
2023/05/03 03:40:48;;;;;;;11.32;7.18;;;9.10;99.90;;;;;;2081432;28;20120;-71
2023/05/03 03:41:49;;;;;;;10.52;7.03;;;9.10;99.90;;;;;;2091650;28;20038;-71
2023/05/03 03:42:50;;;;;;;15.68;7.82;;;9.20;99.90;;;;;;2104218;28;20149;-71
2023/05/03 03:43:51;;;;;;;12.63;7.30;;;9.10;99.90;;;;;;2090068;28;20191;-71
2023/05/03 03:44:53;;;;;;;9.75;7.38;;;9.10;99.90;;;;;;2083230;28;20466;-71
2023/05/03 03:45:54;;;;;;;12.88;7.47;;;9.10;99.90;;;;;;2086042;28;20296;-72
2023/05/03 03:46:54;;;;;;;10.73;7.50;;;9.00;99.90;;;;;;2086476;28;20028;-73
2023/05/03 03:47:56;;;;;;;12.20;7.15;;;9.00;99.90;;;;;;2086116;28;20029;-73
2023/05/03 03:48:57;;;;;;;12.32;7.57;;;9.00;99.90;;;;;;2086070;28;20086;-72
2023/05/03 03:50:01;;;;;;;10.45;7.40;;;9.00;99.90;;;;;;2088499;28;20033;-71
2023/05/03 03:51:04;;;;;;;11.38;7.18;;;9.10;99.90;;;;;;2097861;28;20462;-73
2023/05/03 03:52:11;;;;;;;11.25;7.68;;;9.10;99.90;;;;;;2086657;28;20052;-71
2023/05/03 03:53:11;;;;;;;10.68;7.22;;;9.10;99.90;;;;;;2088372;28;20033;-72
2023/05/03 03:54:14;;;;;;;13.05;8.02;;;9.10;99.90;;;;;;2079248;28;20032;-72
2023/05/03 03:55:19;;;;;;;15.95;8.27;;;9.00;99.90;;;;;;2079998;28;20105;-73
2023/05/03 03:56:24;;;;;;;12.75;7.57;;;9.00;99.90;;;;;;2088853;28;20609;-73
2023/05/03 03:57:28;;;;;;;13.38;7.38;;;9.00;99.90;;;;;;2096670;28;20503;-74
2023/05/03 03:58:29;;;;;;;12.77;7.88;;;9.00;99.90;;;;;;2086055;28;20146;-73
2023/05/03 03:59:30;;;;;;;13.02;7.95;;;9.00;99.90;;;;;;2085672;28;20426;-74
2023/05/03 04:00:35;;;;;;;12.73;8.02;;;9.00;99.90;;;;;;2093833;28;20013;-74
2023/05/03 04:01:42;;;;;;;14.93;7.70;;;9.00;99.90;;;;;;2083792;28;20020;-74
2023/05/03 04:02:43;;;;;;;14.88;7.50;;;9.00;99.90;;;;;;2080617;28;20121;-74
2023/05/03 04:03:49;;;;;;;13.82;7.57;;;9.00;99.90;;;;;;2098137;28;20037;-74
2023/05/03 04:04:50;;;;;;;11.85;7.35;;;8.90;99.90;;;;;;2104046;28;20149;-75
2023/05/03 04:05:52;;;;;;;12.02;6.82;;;8.90;99.90;;;;;;2099730;28;20058;-75
2023/05/03 04:06:54;;;;;;;15.73;7.28;;;8.90;99.90;;;;;;2091740;28;22390;-75
2023/05/03 04:07:57;;;;;;;12.95;7.40;;;8.90;99.90;;;;;;2095503;28;20023;-75
2023/05/03 04:09:01;;;;;;;12.35;7.20;;;8.90;99.90;;;;;;2087986;28;20056;-75
2023/05/03 04:10:02;;;;;;;10.63;7.13;;;9.00;99.90;;;;;;2088988;28;20041;-75
2023/05/03 04:11:08;;;;;;;9.23;6.30;;;8.90;99.90;;;;;;2077636;28;20046;-74
2023/05/03 04:12:10;;;;;;;11.02;6.72;;;8.90;99.90;;;;;;2079136;28;20166;-73
2023/05/03 04:13:10;;;;;;;9.02;6.60;;;8.90;99.90;;;;;;2099090;28;20488;-74
2023/05/03 04:14:11;;;;;;;11.20;6.40;;;8.90;99.90;;;;;;2091417;28;20220;-74
2023/05/03 04:15:12;;;;;;;11.82;6.78;;;9.00;99.90;;;;;;2086317;28;20032;-74
2023/05/03 04:16:14;;;;;;;12.95;7.00;;;8.90;99.90;;;;;;2080595;28;20068;-74
2023/05/03 04:17:15;;;;;;;10.55;6.78;;;9.00;99.90;;;;;;2088096;28;20025;-74
2023/05/03 04:18:15;;;;;;;10.70;6.57;;;9.00;99.90;;;;;;2087881;28;20032;-72
2023/05/03 04:19:17;;;;;;;10.43;6.55;;;9.00;99.90;;;;;;2087155;28;20044;-73
2023/05/03 04:20:18;;;;;;;10.77;6.22;;;9.00;99.90;;;;;;2079096;28;20121;-72
2023/05/03 04:21:22;;;;;;;10.15;6.32;;;9.00;99.90;;;;;;2087018;28;20016;-73
2023/05/03 04:22:24;;;;;;;11.23;6.68;;;9.00;99.90;;;;;;2080446;28;20079;-72
2023/05/03 04:23:25;;;;;;;10.52;6.53;;;9.00;99.90;;;;;;2077607;28;21035;-74
2023/05/03 04:24:30;;;;;;;7.38;5.78;;;9.00;99.90;;;;;;2092219;28;20040;-73
2023/05/03 04:25:31;;;;;;;9.15;5.78;;;9.00;99.90;;;;;;2093538;28;20074;-74
2023/05/03 04:26:36;;;;;;;12.18;6.10;;;9.00;99.90;;;;;;2094757;28;20041;-74
2023/05/03 04:27:44;;;;;;;10.93;6.30;;;9.10;99.90;;;;;;2092776;28;20527;-73
2023/05/03 04:28:46;;;;;;;10.55;6.05;;;9.10;99.90;;;;;;2091750;28;20649;-73
2023/05/03 04:29:47;;;;;;;8.43;5.90;;;9.10;99.90;;;;;;2093955;28;20565;-72
2023/05/03 04:30:48;;;;;;;11.05;6.10;;;9.00;99.90;;;;;;2079782;28;20499;-73
2023/05/03 04:31:54;;;;;;;8.43;5.60;;;9.10;99.90;;;;;;2090326;28;20025;-73
2023/05/03 04:32:58;;;;;;;8.10;5.45;;;9.10;99.90;;;;;;2095370;28;20032;-73
2023/05/03 04:33:58;;;;;;;9.68;5.45;;;9.10;99.90;;;;;;2095863;28;20034;-73
2023/05/03 04:35:00;;;;;;;7.50;5.30;;;9.10;99.90;;;;;;2095215;28;20043;-74
2023/05/03 04:36:01;;;;;;;6.45;5.18;;;9.10;99.90;;;;;;2088405;28;20058;-73
2023/05/03 04:37:01;;;;;;;10.90;5.60;;;9.10;99.90;;;;;;2085714;28;20128;-74
2023/05/03 04:38:03;;;;;;;10.65;5.70;;;9.10;99.90;;;;;;2090557;28;20056;-73
2023/05/03 04:39:05;;;;;;;8.55;5.57;;;9.10;99.90;;;;;;2085539;28;20052;-73
2023/05/03 04:40:08;;;;;;;7.90;5.50;;;9.10;99.90;;;;;;2088361;28;20520;-72
2023/05/03 04:41:11;;;;;;;8.52;5.90;;;9.20;99.90;;;;;;2089114;28;20111;-73
2023/05/03 04:42:14;;;;;;;7.35;5.20;;;9.20;99.90;;;;;;2079017;28;20029;-73
2023/05/03 04:43:15;;;;;;;10.55;5.70;;;9.10;99.90;;;;;;2074199;28;20099;-73
2023/05/03 04:44:19;;;;;;;15.52;7.38;;;9.20;99.90;;;;;;2080027;28;20511;-74
2023/05/03 04:45:23;;;;;;;31.08;11.20;;;9.20;99.90;;;;;;2081821;28;20009;-74
2023/05/03 04:46:24;;;;;;;11.05;6.00;;;9.20;99.90;;;;;;2094112;28;20039;-74
2023/05/03 04:47:25;;;;;;;8.50;5.72;;;9.20;99.90;;;;;;2096054;28;20413;-74
2023/05/03 04:48:26;;;;;;;14.50;6.07;;;9.20;99.90;;;;;;2074669;28;20102;-74
2023/05/03 04:49:27;;;;;;;8.68;5.57;;;9.20;99.90;;;;;;2082272;28;20575;-73
2023/05/03 04:50:28;;;;;;;10.18;5.35;;;9.20;99.90;;;;;;2086449;28;20331;-73
2023/05/03 04:51:28;;;;;;;8.07;5.47;;;9.20;99.90;;;;;;2091205;28;20074;-73
2023/05/03 04:52:31;;;;;;;10.77;5.70;;;9.20;99.90;;;;;;2088502;28;20315;-73
2023/05/03 04:53:32;;;;;;;8.98;6.28;;;9.20;99.90;;;;;;2087036;28;20408;-73
2023/05/03 04:54:38;;;;;;;11.32;6.07;;;9.20;99.90;;;;;;2086768;28;20302;-73
2023/05/03 04:55:40;;;;;;;10.63;5.90;;;9.20;99.90;;;;;;2089337;28;20516;-75
2023/05/03 04:56:41;;;;;;;9.40;5.43;;;9.30;99.90;;;;;;2086747;28;20439;-76
2023/05/03 04:57:47;;;;;;;11.02;5.82;;;9.30;99.90;;;;;;2083845;28;20041;-73
2023/05/03 04:58:48;;;;;;;8.73;5.50;;;9.30;99.90;;;;;;2096708;28;20035;-74
2023/05/03 04:59:52;;;;;;;14.55;5.68;;;9.30;99.90;;;;;;2093828;28;20608;-73
2023/05/03 05:00:53;;;;;;;11.10;5.80;;;9.40;99.90;;;;;;2082289;28;20407;-74
2023/05/03 05:01:59;;;;;;;9.45;5.80;;;9.40;99.90;;;;;;2090684;28;20244;-74
2023/05/03 05:03:00;;;;;;;13.20;5.40;;;9.40;99.90;;;;;;2085636;28;20123;-73
2023/05/03 05:04:04;;;;;;;9.15;5.25;;;9.40;99.90;;;;;;2080284;28;20547;-74
2023/05/03 05:05:16;;;;;;;12.30;5.35;;;9.40;99.90;;;;;;2076037;28;20103;-73
2023/05/03 05:06:16;;;;;;;10.50;5.30;;;9.50;99.90;;;;;;2077978;28;20586;-73
2023/05/03 05:07:17;;;;;;;8.55;5.28;;;9.50;99.90;;;;;;2088503;28;20047;-73
2023/05/03 05:08:19;;;;;;;10.60;4.97;;;9.40;99.90;;;;;;2102534;28;20320;-77
2023/05/03 05:09:26;;;;;;;8.88;5.07;;;9.40;99.90;;;;;;2079784;28;20029;-77
2023/05/03 05:10:29;;;;;;;9.52;4.85;;;9.40;99.90;;;;;;2070864;28;20796;-73
2023/05/03 05:11:31;;;;;;;8.80;4.85;;;9.30;99.90;;;;;;2081933;28;20032;-74
2023/05/03 05:12:32;;;;;;;10.88;5.05;;;9.30;99.90;;;;;;2078798;28;20115;-70
2023/05/03 05:13:36;;;;;;;9.73;4.63;;;9.30;99.90;;;;;;2088163;28;20097;-71
2023/05/03 05:14:36;;;;;;;12.15;5.20;;;9.30;99.90;;;;;;2077206;28;20037;-74
2023/05/03 05:15:37;;;;;;;9.57;5.13;;;9.30;99.90;;;;;;2085944;28;20057;-73
2023/05/03 05:16:38;;;;;;;8.45;4.60;;;9.40;99.90;;;;;;2080722;28;20029;-77
2023/05/03 05:17:38;;;;;;;7.35;4.50;;;9.40;99.90;;;;;;2090496;28;20024;-76
2023/05/03 05:18:40;;;;;;;8.38;5.05;;;9.40;99.90;;;;;;2080302;28;20033;-76
2023/05/03 05:19:43;;;;;;;6.72;4.45;;;9.40;99.90;;;;;;2074376;28;20120;-75
2023/05/03 05:20:44;;;;;;;9.38;4.90;;;9.50;99.90;;;;;;2087392;28;20017;-74
2023/05/03 05:21:45;;;;;;;6.07;4.35;;;9.50;99.90;;;;;;2087055;28;20119;-72
2023/05/03 05:22:46;;;;;;;8.68;4.93;;;9.60;99.90;;;;;;2083688;28;20028;-74
2023/05/03 05:23:47;;;;;;;8.13;4.65;;;9.60;99.90;;;;;;2089952;28;20040;-73
2023/05/03 05:24:47;;;;;;;9.57;5.00;;;9.70;99.90;;;;;;2083707;28;20033;-72
2023/05/03 05:25:49;;;;;;;7.57;5.20;;;9.70;99.90;;;;;;2090077;28;20127;-75
2023/05/03 05:26:51;;;;;;;9.35;5.05;;;9.70;99.90;;;;;;2084254;28;20036;-75